createdAt,value
2023-04-12T05:18:48.447Z,100861.14
2023-04-12T05:19:52.185Z,100863.55
2023-04-12T05:20:55.038Z,100861.84
2023-04-12T05:21:58.310Z,100864.42
2023-04-12T05:23:01.275Z,100862.98
2023-04-12T05:24:04.299Z,100862.66
2023-04-12T05:25:08.942Z,100860.83
2023-04-12T05:26:16.197Z,100858.57
2023-04-12T05:27:22.399Z,100855.83
2023-04-12T05:28:25.831Z,100854.07
2023-04-12T05:29:29.334Z,100855.56
2023-04-12T05:30:32.656Z,100858.16
2023-04-12T05:31:36.604Z,100859.41
2023-04-12T05:32:41.614Z,100858.91
2023-04-12T05:33:45.216Z,100864.56
2023-04-12T05:34:49.122Z,100861.56
2023-04-12T05:35:52.753Z,100866.38
2023-04-12T05:36:55.732Z,100866.13
2023-04-12T05:37:59.174Z,100866.52
2023-04-12T05:39:02.114Z,100868.61
2023-04-12T05:40:09.917Z,100870.98
2023-04-12T05:41:13.325Z,100871.23
2023-04-12T05:42:16.656Z,100871.16
2023-04-12T05:43:20.037Z,100873.59
2023-04-12T05:44:23.039Z,100873.02
2023-04-12T05:45:26.328Z,100873.27
2023-04-12T05:46:29.400Z,100877.67
2023-04-12T05:47:32.398Z,100875.68
2023-04-12T05:48:35.322Z,100879.05
2023-04-12T05:49:38.422Z,100877.45
2023-04-12T05:50:51.652Z,100876.11
2023-04-12T05:51:54.593Z,100875.71
2023-04-12T05:53:00.533Z,100871.70
2023-04-12T05:54:08.278Z,100867.80
2023-04-12T05:55:12.185Z,100866.95
2023-04-12T05:56:17.558Z,100864.05
2023-04-12T05:57:21.039Z,100861.92
2023-04-12T05:58:24.783Z,100863.87
2023-04-12T05:59:29.655Z,100863.90
2023-04-12T06:00:33.252Z,100867.24
2023-04-12T06:01:36.347Z,100863.39
2023-04-12T06:02:40.269Z,100860.55
2023-04-12T06:03:43.737Z,100859.25
2023-04-12T06:04:51.132Z,100858.02
2023-04-12T06:05:56.066Z,100857.52
2023-04-12T06:07:00.671Z,100858.60
2023-04-12T06:08:05.421Z,100858.52
2023-04-12T06:09:10.020Z,100861.27
2023-04-12T06:10:14.907Z,100858.97
2023-04-12T06:11:17.954Z,100862.77
2023-04-12T06:12:20.884Z,100868.14
2023-04-12T06:13:24.134Z,100862.71
2023-04-12T06:14:27.106Z,100865.80
2023-04-12T06:15:32.099Z,100866.77
2023-04-12T06:16:35.074Z,100867.61
2023-04-12T06:17:38.977Z,100861.64
2023-04-12T06:18:42.154Z,100864.23
2023-04-12T06:19:45.303Z,100862.55
2023-04-12T06:20:48.252Z,100863.64
2023-04-12T06:21:51.690Z,100862.20
2023-04-12T06:22:56.014Z,100859.98
2023-04-12T06:23:59.028Z,100856.73
2023-04-12T06:25:01.985Z,100854.26
2023-04-12T06:26:05.764Z,100857.57
2023-04-12T06:27:09.246Z,100853.95
2023-04-12T06:28:12.122Z,100855.20
2023-04-12T06:29:20.832Z,100855.03
2023-04-12T06:30:23.736Z,100857.83
2023-04-12T06:31:29.810Z,100856.08
2023-04-12T06:32:32.955Z,100858.21
2023-04-12T06:33:37.025Z,100862.62
2023-04-12T06:34:44.199Z,100863.15
2023-04-12T06:35:50.649Z,100866.48
2023-04-12T06:36:53.581Z,100866.98
2023-04-12T06:37:56.419Z,100871.14
2023-04-12T06:38:59.449Z,100871.35
2023-04-12T06:40:02.423Z,100873.44
2023-04-12T06:41:05.997Z,100872.32
2023-04-12T06:42:08.813Z,100871.98
2023-04-12T06:43:19.156Z,100870.25
2023-04-12T06:44:22.021Z,100873.98
2023-04-12T06:45:24.884Z,100870.96
2023-04-12T06:46:28.906Z,100871.21
2023-04-12T06:47:32.713Z,100869.29
2023-04-12T06:48:35.699Z,100871.44
2023-04-12T06:49:39.214Z,100873.55
2023-04-12T06:50:41.987Z,100872.81
2023-04-12T06:51:44.995Z,100876.45
2023-04-12T06:52:48.831Z,100875.25
2023-04-12T06:53:51.660Z,100875.23
2023-04-12T06:54:57.036Z,100877.09
2023-04-12T06:56:04.117Z,100882.26
2023-04-12T06:57:13.285Z,100883.86
2023-04-12T06:58:16.173Z,100882.39
2023-04-12T06:59:18.984Z,100883.88
2023-04-12T07:00:22.502Z,100884.92
2023-04-12T07:01:25.590Z,100889.17
2023-04-12T07:02:28.581Z,100887.15
2023-04-12T07:03:33.438Z,100888.86
2023-04-12T07:04:36.671Z,100885.04
2023-04-12T07:05:39.947Z,100885.00
2023-04-12T07:06:42.937Z,100882.95
2023-04-12T07:07:45.907Z,100883.31
2023-04-12T07:08:49.618Z,100884.64
2023-04-12T07:09:53.154Z,100881.28
2023-04-12T07:10:56.161Z,100885.00
2023-04-12T07:12:01.150Z,100881.52
2023-04-12T07:13:07.204Z,100880.77
2023-04-12T07:14:09.977Z,100878.29
2023-04-12T07:15:12.762Z,100878.73
2023-04-12T07:16:15.739Z,100877.79
2023-04-12T07:17:19.099Z,100880.92
2023-04-12T07:18:22.140Z,100880.96
2023-04-12T07:19:25.063Z,100882.98
2023-04-12T07:20:27.887Z,100884.96
2023-04-12T07:21:30.778Z,100883.13
2023-04-12T07:22:33.820Z,100884.11
2023-04-12T07:23:36.799Z,100886.34
2023-04-12T07:24:39.796Z,100885.70
2023-04-12T07:25:42.666Z,100889.17
2023-04-12T07:26:45.538Z,100888.75
2023-04-12T07:27:49.903Z,100888.33
2023-04-12T07:28:54.916Z,100886.43
2023-04-12T07:29:58.861Z,100890.09
2023-04-12T07:31:04.759Z,100887.71
2023-04-12T07:32:10.894Z,100890.30
2023-04-12T07:33:19.702Z,100894.23
2023-04-12T07:34:24.331Z,100892.59
2023-04-12T07:35:27.417Z,100893.55
2023-04-12T07:36:31.357Z,100893.84
2023-04-12T07:37:34.228Z,100893.95
2023-04-12T07:38:37.048Z,100892.41
2023-04-12T07:39:41.016Z,100890.27
2023-04-12T07:40:44.030Z,100886.30
2023-04-12T07:41:48.400Z,100889.74
2023-04-12T07:42:51.225Z,100885.98
2023-04-12T07:43:54.084Z,100885.77
2023-04-12T07:44:56.973Z,100884.31
2023-04-12T07:45:59.898Z,100882.84
2023-04-12T07:47:02.746Z,100885.45
2023-04-12T07:48:06.819Z,100887.02
2023-04-12T07:49:10.734Z,100888.88
2023-04-12T07:50:13.974Z,100890.56
2023-04-12T07:51:16.789Z,100895.93
2023-04-12T07:52:19.593Z,100895.69
2023-04-12T07:53:26.248Z,100896.59
2023-04-12T07:54:29.272Z,100900.57
2023-04-12T07:55:32.060Z,100897.56
2023-04-12T07:56:36.173Z,100896.39
2023-04-12T07:57:38.990Z,100893.67
2023-04-12T07:58:41.825Z,100895.77
2023-04-12T07:59:44.725Z,100893.20
2023-04-12T08:00:48.445Z,100890.25
2023-04-12T08:01:52.592Z,100886.34
2023-04-12T08:02:57.071Z,100884.59
2023-04-12T08:04:00.558Z,100883.05
2023-04-12T08:05:04.773Z,100878.63
2023-04-12T08:06:08.624Z,100876.87
2023-04-12T08:07:11.706Z,100872.68
2023-04-12T08:08:14.597Z,100868.02
2023-04-12T08:09:17.391Z,100863.77
2023-04-12T08:10:20.399Z,100866.57
2023-04-12T08:11:23.300Z,100864.86
2023-04-12T08:12:26.231Z,100866.58
2023-04-12T08:13:29.026Z,100861.34
2023-04-12T08:14:31.869Z,100863.14
2023-04-12T08:15:34.914Z,100863.39
2023-04-12T08:16:37.863Z,100860.56
2023-04-12T08:17:43.919Z,100859.73
2023-04-12T08:18:46.926Z,100862.07
2023-04-12T08:19:49.963Z,100861.08
2023-04-12T08:20:53.311Z,100861.52
2023-04-12T08:21:56.830Z,100862.31
2023-04-12T08:22:59.913Z,100861.69
2023-04-12T08:24:03.084Z,100859.20
2023-04-12T08:25:06.819Z,100859.11
2023-04-12T08:26:09.980Z,100859.63
2023-04-12T08:27:13.956Z,100861.92
2023-04-12T08:28:17.026Z,100860.98
2023-04-12T08:29:19.925Z,100857.02
2023-04-12T08:30:27.031Z,100855.74
2023-04-12T08:31:30.389Z,100852.19
2023-04-12T08:32:50.857Z,100855.19
2023-04-12T08:33:53.910Z,100854.43
2023-04-12T08:34:56.879Z,100850.39
2023-04-12T08:36:00.256Z,100855.60
2023-04-12T08:37:03.336Z,100858.36
2023-04-12T08:38:07.968Z,100860.57
2023-04-12T08:39:11.224Z,100857.72
2023-04-12T08:40:14.485Z,100855.92
2023-04-12T08:41:18.383Z,100855.90
2023-04-12T08:42:22.230Z,100855.16
2023-04-12T08:43:29.142Z,100852.41
2023-04-12T08:44:37.033Z,100852.02
2023-04-12T08:45:40.004Z,100846.47
2023-04-12T08:46:44.169Z,100848.85
2023-04-12T08:47:47.166Z,100848.41
2023-04-12T08:48:54.231Z,100848.69
2023-04-12T08:49:57.395Z,100847.02
2023-04-12T08:51:00.600Z,100850.34
2023-04-12T08:52:08.384Z,100850.74
2023-04-12T08:53:11.860Z,100852.23
2023-04-12T08:54:16.009Z,100852.86
2023-04-12T08:55:18.926Z,100851.55
2023-04-12T08:56:23.511Z,100851.70
2023-04-12T08:57:27.071Z,100846.70
2023-04-12T08:58:31.308Z,100844.27
2023-04-12T08:59:39.263Z,100843.98
2023-04-12T09:00:42.954Z,100844.00
2023-04-12T09:01:46.174Z,100841.05
2023-04-12T09:02:49.708Z,100845.41
2023-04-12T09:03:52.861Z,100840.80
2023-04-12T09:04:56.165Z,100844.59
2023-04-12T09:06:03.344Z,100842.65
2023-04-12T09:07:07.039Z,100842.86
2023-04-12T09:08:10.271Z,100843.80
2023-04-12T09:09:13.171Z,100844.91
2023-04-12T09:10:35.220Z,100841.30
2023-04-12T09:11:38.947Z,100835.46
2023-04-12T09:12:47.906Z,100837.27
2023-04-12T09:13:51.383Z,100830.93
2023-04-12T09:15:12.839Z,100831.38
2023-04-12T09:16:17.227Z,100828.04
2023-04-12T09:17:27.903Z,100828.27
2023-04-12T09:18:30.990Z,100823.45
2023-04-12T09:19:36.071Z,100824.35
2023-04-12T09:20:39.324Z,100826.52
2023-04-12T09:21:57.778Z,100824.41
2023-04-12T09:23:02.790Z,100824.06
2023-04-12T09:24:14.852Z,100824.92
2023-04-12T09:25:18.524Z,100825.39
2023-04-12T09:26:31.632Z,100827.04
2023-04-12T09:27:52.558Z,100828.61
2023-04-12T09:28:55.440Z,100828.81
2023-04-12T09:30:10.760Z,100828.90
2023-04-12T09:31:19.370Z,100830.59
2023-04-12T09:32:27.505Z,100826.52
2023-04-12T09:33:48.531Z,100830.51
2023-04-12T09:35:00.564Z,100833.19
2023-04-12T09:36:13.536Z,100833.83
2023-04-12T09:37:17.195Z,100841.11
2023-04-12T09:38:20.582Z,100839.31
2023-04-12T09:39:42.210Z,100838.79
2023-04-12T09:40:45.199Z,100842.16
2023-04-12T09:41:48.221Z,100837.23
2023-04-12T09:42:56.261Z,100834.10
2023-04-12T09:44:00.503Z,100835.36
2023-04-12T09:45:24.398Z,100835.30
2023-04-12T09:46:27.868Z,100832.13
2023-04-12T09:47:39.638Z,100833.45
2023-04-12T09:48:50.284Z,100832.14
2023-04-12T09:49:53.252Z,100831.68
2023-04-12T09:51:00.293Z,100832.73
2023-04-12T09:52:03.658Z,100829.93
2023-04-12T09:53:17.280Z,100831.06
2023-04-12T09:54:20.962Z,100832.02
2023-04-12T09:55:25.834Z,100831.29
2023-04-12T09:56:32.375Z,100833.27
2023-04-12T09:57:39.857Z,100835.36
2023-04-12T09:58:44.681Z,100831.47
2023-04-12T09:59:51.551Z,100833.58
2023-04-12T10:00:57.011Z,100829.46
2023-04-12T10:02:00.701Z,100828.79
2023-04-12T10:03:05.231Z,100828.24
2023-04-12T10:04:09.981Z,100824.35
2023-04-12T10:05:16.173Z,100825.55
2023-04-12T10:06:20.572Z,100818.02
2023-04-12T10:07:23.739Z,100823.06
2023-04-12T10:08:27.170Z,100816.33
2023-04-12T10:09:30.211Z,100818.52
2023-04-12T10:10:33.509Z,100819.41
2023-04-12T10:11:40.606Z,100814.51
2023-04-12T10:12:46.535Z,100816.82
2023-04-12T10:13:52.288Z,100814.33
2023-04-12T10:14:55.474Z,100809.59
2023-04-12T10:16:01.084Z,100811.64
2023-04-12T10:17:05.698Z,100814.35
2023-04-12T10:18:11.391Z,100811.84
2023-04-12T10:19:15.076Z,100808.02
2023-04-12T10:20:19.593Z,100811.60
2023-04-12T10:21:23.594Z,100807.33
2023-04-12T10:22:27.165Z,100809.66
2023-04-12T10:23:33.002Z,100810.15
2023-04-12T10:24:38.648Z,100805.47
2023-04-12T10:25:45.036Z,100811.14
2023-04-12T10:26:50.503Z,100811.20
2023-04-12T10:27:53.804Z,100811.99
2023-04-12T10:29:24.512Z,100809.19
2023-04-12T10:30:30.091Z,100809.13
2023-04-12T10:31:34.352Z,100811.92
2023-04-12T10:32:37.736Z,100811.73
2023-04-12T10:33:42.938Z,100805.70
2023-04-12T10:34:51.067Z,100800.88
2023-04-12T10:36:06.925Z,100800.72
2023-04-12T10:37:10.244Z,100799.08
2023-04-12T10:38:13.169Z,100797.55
2023-04-12T10:39:16.413Z,100796.45
2023-04-12T10:40:19.661Z,100798.77
2023-04-12T10:41:22.889Z,100796.14
2023-04-12T10:42:29.784Z,100797.08
2023-04-12T10:43:36.332Z,100795.99
2023-04-12T10:44:39.860Z,100793.70
2023-04-12T10:45:43.178Z,100796.69
2023-04-12T10:46:46.463Z,100796.20
2023-04-12T10:47:49.520Z,100792.73
2023-04-12T10:48:53.884Z,100792.54
2023-04-12T10:50:30.225Z,100799.46
2023-04-12T10:51:37.791Z,100796.46
2023-04-12T10:53:09.190Z,100792.21
2023-04-12T10:54:12.472Z,100795.89
2023-04-12T10:55:28.227Z,100792.70
2023-04-12T10:56:34.044Z,100789.97
2023-04-12T10:57:43.692Z,100788.17
2023-04-12T10:58:49.797Z,100792.83
2023-04-12T10:59:59.593Z,100786.20
2023-04-12T11:01:11.959Z,100785.54
2023-04-12T11:02:16.731Z,100783.39
2023-04-12T11:03:28.980Z,100782.06
2023-04-12T11:04:32.407Z,100784.77
2023-04-12T11:06:12.787Z,100783.45
2023-04-12T11:07:43.911Z,100781.75
2023-04-12T11:10:20.029Z,100776.58
2023-04-12T11:11:27.392Z,100777.56
2023-04-12T11:12:31.042Z,100777.16
2023-04-12T11:13:38.782Z,100776.89
2023-04-12T11:14:46.746Z,100776.98
2023-04-12T11:15:56.518Z,100776.59
2023-04-12T11:17:06.135Z,100772.54
2023-04-12T11:18:09.486Z,100770.07
2023-04-12T11:19:13.166Z,100765.30
2023-04-12T11:20:16.474Z,100765.95
2023-04-12T11:21:20.053Z,100767.09
2023-04-12T11:22:26.118Z,100767.24
2023-04-12T11:23:29.584Z,100767.73
2023-04-12T11:24:33.706Z,100766.40
2023-04-12T11:25:37.468Z,100763.43
2023-04-12T11:26:41.050Z,100766.45
2023-04-12T11:27:54.912Z,100766.52
2023-04-12T11:28:59.456Z,100765.88
2023-04-12T11:30:03.014Z,100767.48
2023-04-12T11:31:07.555Z,100767.20
2023-04-12T11:32:14.159Z,100764.21
2023-04-12T11:33:32.321Z,100764.10
2023-04-12T11:34:36.800Z,100768.27
2023-04-12T11:35:43.780Z,100766.73
2023-04-12T11:36:48.171Z,100765.16
2023-04-12T11:37:51.354Z,100765.75
2023-04-12T11:38:57.155Z,100768.79
2023-04-12T11:40:00.553Z,100767.65
2023-04-12T11:41:07.112Z,100763.64
2023-04-12T11:42:15.907Z,100766.47
2023-04-12T11:43:20.675Z,100765.33
2023-04-12T11:44:24.408Z,100763.32
2023-04-12T11:45:29.455Z,100762.05
2023-04-12T11:46:35.971Z,100763.15
2023-04-12T11:47:43.712Z,100761.27
2023-04-12T11:48:47.253Z,100763.55
2023-04-12T11:49:53.285Z,100762.05
2023-04-12T11:51:10.324Z,100762.70
2023-04-12T11:52:16.107Z,100762.99
2023-04-12T11:53:19.743Z,100760.19
2023-04-12T11:54:29.787Z,100762.89
2023-04-12T11:55:32.851Z,100763.11
2023-04-12T11:56:37.665Z,100763.75
2023-04-12T11:57:40.898Z,100758.48
2023-04-12T11:58:47.913Z,100758.41
2023-04-12T11:59:51.217Z,100756.27
2023-04-12T12:00:57.468Z,100754.77
2023-04-12T12:02:13.836Z,100752.39
2023-04-12T12:03:25.588Z,100752.82
2023-04-12T12:04:30.576Z,100750.19
2023-04-12T12:05:37.463Z,100748.48
2023-04-12T12:06:41.445Z,100747.39
2023-04-12T12:07:44.676Z,100746.58
2023-04-12T12:08:51.684Z,100738.59
2023-04-12T12:09:55.487Z,100740.61
2023-04-12T12:11:07.313Z,100737.70
2023-04-12T12:12:12.812Z,100736.84
2023-04-12T12:13:16.077Z,100734.58
2023-04-12T12:14:23.566Z,100731.81
2023-04-12T12:15:32.945Z,100733.88
2023-04-12T12:16:36.431Z,100729.49
2023-04-12T12:17:40.150Z,100728.53
2023-04-12T12:18:44.727Z,100725.13
2023-04-12T12:19:48.516Z,100724.60
2023-04-12T12:20:51.660Z,100721.27
2023-04-12T12:21:55.187Z,100720.56
2023-04-12T12:22:58.356Z,100716.66
2023-04-12T12:24:02.373Z,100718.83
2023-04-12T12:25:06.887Z,100715.65
2023-04-12T12:26:18.877Z,100712.98
2023-04-12T12:27:24.808Z,100710.18
2023-04-12T12:28:27.807Z,100713.41
2023-04-12T12:29:38.352Z,100711.52
2023-04-12T12:30:41.458Z,100708.67
2023-04-12T12:31:50.511Z,100709.61
2023-04-12T12:32:53.628Z,100705.59
2023-04-12T12:33:58.544Z,100699.80
2023-04-12T12:35:02.048Z,100696.45
2023-04-12T12:36:06.801Z,100697.77
2023-04-12T12:37:13.680Z,100694.29
2023-04-12T12:38:16.578Z,100693.52
2023-04-12T12:39:19.841Z,100692.78
2023-04-12T12:40:32.511Z,100688.40
2023-04-12T12:41:36.599Z,100687.43
2023-04-12T12:42:54.783Z,100679.77
2023-04-12T12:43:58.320Z,100676.49
2023-04-12T12:45:04.682Z,100672.61
2023-04-12T12:46:07.906Z,100671.63
2023-04-12T12:47:14.332Z,100668.83
2023-04-12T12:48:21.100Z,100670.06
2023-04-12T12:49:24.327Z,100667.01
2023-04-12T12:50:29.539Z,100665.83
2023-04-12T12:51:33.301Z,100660.42
2023-04-12T12:52:36.454Z,100664.39
2023-04-12T12:53:40.970Z,100661.80
2023-04-12T12:54:44.033Z,100664.73
2023-04-12T12:55:47.392Z,100661.73
2023-04-12T12:56:50.478Z,100662.89
2023-04-12T12:58:07.265Z,100662.95
2023-04-12T12:59:11.793Z,100655.56
2023-04-12T13:00:16.407Z,100656.14
2023-04-12T13:01:19.518Z,100652.77
2023-04-12T13:02:22.814Z,100651.58
2023-04-12T13:03:26.120Z,100651.97
2023-04-12T13:04:29.952Z,100645.50
2023-04-12T13:05:33.190Z,100640.54
2023-04-12T13:06:36.206Z,100643.71
2023-04-12T13:07:39.498Z,100639.86
2023-04-12T13:08:42.879Z,100643.34
2023-04-12T13:09:46.610Z,100646.46
2023-04-12T13:10:50.702Z,100648.30
2023-04-12T13:11:53.845Z,100645.42
2023-04-12T13:12:56.827Z,100646.34
2023-04-12T13:13:59.886Z,100643.46
2023-04-12T13:15:20.127Z,100647.59
2023-04-12T13:16:26.994Z,100639.98
2023-04-12T13:17:31.613Z,100636.04
2023-04-12T13:18:34.577Z,100637.46
2023-04-12T13:19:38.036Z,100628.56
2023-04-12T13:20:41.469Z,100632.64
2023-04-12T13:21:44.579Z,100634.70
2023-04-12T13:22:48.203Z,100638.67
2023-04-12T13:23:51.196Z,100637.41
2023-04-12T13:24:55.406Z,100630.00
2023-04-12T13:25:58.318Z,100628.90
2023-04-12T13:27:01.215Z,100625.55
2023-04-12T13:28:04.763Z,100625.03
2023-04-12T13:29:07.729Z,100620.16
2023-04-12T13:30:11.663Z,100619.50
2023-04-12T13:31:14.588Z,100622.38
2023-04-12T13:32:18.709Z,100619.96
2023-04-12T13:33:22.334Z,100620.83
2023-04-12T13:34:25.995Z,100617.09
2023-04-12T13:35:29.002Z,100614.35
2023-04-12T13:36:32.222Z,100613.98
2023-04-12T13:37:35.140Z,100613.36
2023-04-12T13:38:38.494Z,100614.24
2023-04-12T13:39:41.607Z,100619.71
2023-04-12T13:40:44.605Z,100615.56
2023-04-12T13:41:47.684Z,100609.55
2023-04-12T13:42:50.696Z,100609.90
2023-04-12T13:43:53.838Z,100610.94
2023-04-12T13:44:57.058Z,100609.75
2023-04-12T13:46:00.400Z,100604.48
2023-04-12T13:47:04.704Z,100605.99
2023-04-12T13:48:07.811Z,100605.91
2023-04-12T13:49:11.668Z,100607.70
2023-04-12T13:50:14.647Z,100598.69
2023-04-12T13:51:18.156Z,100594.77
2023-04-12T13:52:21.517Z,100594.17
2023-04-12T13:53:24.544Z,100590.83
2023-04-12T13:54:27.778Z,100592.91
2023-04-12T13:55:30.888Z,100593.04
2023-04-12T13:56:33.940Z,100591.82
2023-04-12T13:57:37.006Z,100590.91
2023-04-12T13:58:40.133Z,100591.48
2023-04-12T13:59:43.279Z,100593.20
2023-04-12T14:00:46.252Z,100590.41
2023-04-12T14:01:49.922Z,100596.24
2023-04-12T14:02:54.128Z,100591.06
2023-04-12T14:03:57.205Z,100595.47
2023-04-12T14:05:00.838Z,100597.70
2023-04-12T14:06:03.904Z,100598.64
2023-04-12T14:07:06.955Z,100606.34
2023-04-12T14:08:09.867Z,100604.04
2023-04-12T14:09:30.551Z,100603.88
2023-04-12T14:10:33.630Z,100592.00
2023-04-12T14:11:47.369Z,100593.45
2023-04-12T14:12:50.452Z,100596.98
2023-04-12T14:13:54.681Z,100597.40
2023-04-12T14:14:57.974Z,100591.06
2023-04-12T14:16:01.012Z,100595.27
2023-04-12T14:17:04.096Z,100594.25
2023-04-12T14:18:07.472Z,100594.92
2023-04-12T14:19:10.838Z,100594.49
2023-04-12T14:20:14.566Z,100592.67
2023-04-12T14:21:18.770Z,100592.46
2023-04-12T14:22:21.677Z,100595.42
2023-04-12T14:23:26.224Z,100594.83
2023-04-12T14:24:29.231Z,100597.88
2023-04-12T14:25:32.333Z,100594.83
2023-04-12T14:26:35.763Z,100595.90
2023-04-12T14:27:38.881Z,100598.36
2023-04-12T14:28:42.160Z,100599.36
2023-04-12T14:29:45.360Z,100600.11
2023-04-12T14:30:51.049Z,100597.89
2023-04-12T14:31:54.646Z,100599.65
2023-04-12T14:32:57.699Z,100599.61
2023-04-12T14:34:01.187Z,100589.01
2023-04-12T14:35:05.402Z,100591.56
2023-04-12T14:36:09.034Z,100589.89
2023-04-12T14:37:12.500Z,100593.46
2023-04-12T14:38:15.385Z,100593.02
2023-04-12T14:39:18.467Z,100590.95
2023-04-12T14:40:21.612Z,100593.05
2023-04-12T14:41:24.633Z,100594.29
2023-04-12T14:42:27.685Z,100593.79
2023-04-12T14:43:30.753Z,100591.30
2023-04-12T14:44:33.837Z,100589.29
2023-04-12T14:45:37.761Z,100590.25
2023-04-12T14:46:40.770Z,100594.02
2023-04-12T14:47:43.949Z,100591.86
2023-04-12T14:48:47.198Z,100593.77
2023-04-12T14:49:50.391Z,100594.58
2023-04-12T14:50:55.631Z,100599.63
2023-04-12T14:51:59.625Z,100599.77
2023-04-12T14:53:02.884Z,100599.05
2023-04-12T14:54:05.810Z,100601.51
2023-04-12T14:55:10.686Z,100602.23
2023-04-12T14:56:22.332Z,100600.86
2023-04-12T14:57:27.314Z,100605.14
2023-04-12T14:58:30.771Z,100605.71
2023-04-12T14:59:34.107Z,100605.27
2023-04-12T15:00:38.043Z,100605.67
2023-04-12T15:01:41.787Z,100606.29
2023-04-12T15:02:46.357Z,100611.94
2023-04-12T15:03:51.935Z,100616.47
2023-04-12T15:04:55.592Z,100615.73
2023-04-12T15:05:59.218Z,100616.10
2023-04-12T15:07:02.160Z,100610.97
2023-04-12T15:08:05.146Z,100612.45
2023-04-12T15:09:10.233Z,100613.21
2023-04-12T15:10:16.086Z,100612.81
2023-04-12T15:11:19.317Z,100613.41
2023-04-12T15:12:22.196Z,100610.74
2023-04-12T15:13:33.533Z,100610.34
2023-04-12T15:14:38.281Z,100607.67
2023-04-12T15:15:41.853Z,100608.33
2023-04-12T15:16:46.473Z,100607.23
2023-04-12T15:17:49.793Z,100608.31
2023-04-12T15:18:52.848Z,100605.50
2023-04-12T15:19:56.203Z,100602.22
2023-04-12T15:21:00.323Z,100603.62
2023-04-12T15:22:03.576Z,100602.34
2023-04-12T15:23:06.711Z,100599.48
2023-04-12T15:24:09.645Z,100599.98
2023-04-12T15:25:12.614Z,100593.22
2023-04-12T15:26:15.991Z,100598.16
2023-04-12T15:27:19.178Z,100600.02
2023-04-12T15:28:22.170Z,100599.02
2023-04-12T15:29:28.205Z,100595.40
2023-04-12T15:30:32.043Z,100594.10
2023-04-12T15:31:35.035Z,100596.91
2023-04-12T15:32:39.175Z,100597.17
2023-04-12T15:33:44.408Z,100596.09
2023-04-12T15:34:47.316Z,100597.67
2023-04-12T15:35:50.524Z,100593.17
2023-04-12T15:36:53.624Z,100592.45
2023-04-12T15:37:56.636Z,100596.73
2023-04-12T15:39:00.843Z,100597.12
2023-04-12T15:40:13.681Z,100596.30
2023-04-12T15:41:16.643Z,100595.85
2023-04-12T15:42:20.781Z,100593.75
2023-04-12T15:43:25.231Z,100593.27
2023-04-12T15:44:32.054Z,100587.45
2023-04-12T15:45:35.128Z,100586.91
2023-04-12T15:46:39.366Z,100589.95
2023-04-12T15:47:42.759Z,100588.91
2023-04-12T15:48:45.969Z,100589.65
2023-04-12T15:49:48.896Z,100590.19
2023-04-12T15:50:54.678Z,100591.71
2023-04-12T15:51:58.040Z,100590.85
2023-04-12T15:53:01.463Z,100591.17
2023-04-12T15:54:04.728Z,100588.83
2023-04-12T15:55:11.675Z,100592.82
2023-04-12T15:56:17.200Z,100595.36
2023-04-12T15:57:20.846Z,100596.21
2023-04-12T15:58:24.661Z,100599.00
2023-04-12T15:59:29.458Z,100595.77
2023-04-12T16:00:33.104Z,100596.45
2023-04-12T16:01:36.762Z,100596.92
2023-04-12T16:02:40.700Z,100600.21
2023-04-12T16:03:47.312Z,100597.30
2023-04-12T16:04:51.006Z,100600.41
2023-04-12T16:05:54.551Z,100599.60
2023-04-12T16:07:02.189Z,100597.16
2023-04-12T16:08:05.235Z,100594.94
2023-04-12T16:09:08.352Z,100599.80
2023-04-12T16:10:11.664Z,100600.96
2023-04-12T16:11:19.599Z,100600.45
2023-04-12T16:12:22.542Z,100600.14
2023-04-12T16:13:25.931Z,100594.85
2023-04-12T16:14:29.200Z,100591.61
2023-04-12T16:15:33.636Z,100594.52
2023-04-12T16:16:40.584Z,100591.41
2023-04-12T16:17:45.468Z,100588.84
2023-04-12T16:18:49.577Z,100590.03
2023-04-12T16:19:54.620Z,100590.36
2023-04-12T16:20:58.526Z,100587.29
2023-04-12T16:22:02.505Z,100585.07
2023-04-12T16:23:06.870Z,100588.79
2023-04-12T16:24:11.915Z,100585.96
2023-04-12T16:25:20.152Z,100585.73
2023-04-12T16:26:24.014Z,100583.80
2023-04-12T16:27:29.878Z,100582.20
2023-04-12T16:28:37.639Z,100583.25
2023-04-12T16:29:41.896Z,100580.75
2023-04-12T16:30:46.228Z,100580.47
2023-04-12T16:31:51.862Z,100579.34
2023-04-12T16:32:55.582Z,100580.30
2023-04-12T16:33:58.990Z,100582.45
2023-04-12T16:35:02.585Z,100582.54
2023-04-12T16:36:06.041Z,100582.70
2023-04-12T16:37:09.094Z,100583.81
2023-04-12T16:38:14.761Z,100584.38
2023-04-12T16:39:19.734Z,100584.48
2023-04-12T16:40:24.765Z,100585.83
2023-04-12T16:41:27.962Z,100583.27
2023-04-12T16:42:31.938Z,100586.54
2023-04-12T16:43:35.021Z,100584.64
2023-04-12T16:44:38.613Z,100583.85
2023-04-12T16:45:45.713Z,100582.96
2023-04-12T16:46:49.057Z,100584.73
2023-04-12T16:47:52.160Z,100582.12
2023-04-12T16:48:55.230Z,100583.00
2023-04-12T16:49:58.470Z,100583.91
2023-04-12T16:51:03.810Z,100584.92
2023-04-12T16:52:07.196Z,100582.18
2023-04-12T16:53:11.759Z,100582.98
2023-04-12T16:54:14.959Z,100587.33
2023-04-12T16:55:17.810Z,100587.23
2023-04-12T16:56:21.163Z,100587.05
2023-04-12T16:57:24.435Z,100588.73
2023-04-12T16:58:28.858Z,100588.02
2023-04-12T16:59:33.260Z,100587.65
2023-04-12T17:00:37.173Z,100586.52
2023-04-12T17:01:40.737Z,100584.88
2023-04-12T17:02:43.850Z,100580.14
2023-04-12T17:03:47.684Z,100579.33
2023-04-12T17:04:51.140Z,100583.62
2023-04-12T17:05:54.562Z,100579.69
2023-04-12T17:06:59.081Z,100577.45
2023-04-12T17:08:05.645Z,100578.02
2023-04-12T17:09:09.783Z,100574.35
2023-04-12T17:10:13.128Z,100578.04
2023-04-12T17:11:16.441Z,100573.75
2023-04-12T17:12:19.837Z,100573.80
2023-04-12T17:13:22.748Z,100577.02
2023-04-12T17:14:29.684Z,100573.15
2023-04-12T17:15:32.887Z,100569.15
2023-04-12T17:16:36.226Z,100569.55
2023-04-12T17:17:39.867Z,100571.73
2023-04-12T17:18:43.650Z,100575.71
2023-04-12T17:19:46.766Z,100567.65
2023-04-12T17:20:49.918Z,100570.14
2023-04-12T17:21:53.104Z,100569.85
2023-04-12T17:22:57.618Z,100568.03
2023-04-12T17:24:01.282Z,100571.08
2023-04-12T17:25:06.931Z,100573.48
2023-04-12T17:26:10.293Z,100575.83
2023-04-12T17:27:13.192Z,100578.26
2023-04-12T17:28:16.572Z,100576.34
2023-04-12T17:29:20.466Z,100580.41
2023-04-12T17:30:24.031Z,100579.70
2023-04-12T17:31:29.367Z,100579.66
2023-04-12T17:32:33.887Z,100578.79
2023-04-12T17:33:37.827Z,100581.41
2023-04-12T17:34:42.526Z,100578.05
2023-04-12T17:35:46.591Z,100579.83
2023-04-12T17:36:50.327Z,100581.30
2023-04-12T17:37:53.560Z,100583.84
2023-04-12T17:38:58.299Z,100580.71
2023-04-12T17:40:03.948Z,100584.54
2023-04-12T17:41:09.247Z,100582.75